Sovereign — 9HUE9 — position and weather

sailwx.info

Track history (hours):
 
Tides and Currents Weather Stations Pressure Air Temp Water Temp Dewpoint Dewpoint Depression Visibility Wind Speed Wind Dir Waves Ship Positions

Sovereign

Last reported at 2020-Jul-11 07:58 UTC. Time now 2020-Jul-11 08:49 UTC.
Position N 35°56' E 014°51'.

Length 269 m; draft 7.8 m.

Type: Passenger vessel. MMSI: 249539000.

Date/timePositionNaut miles runAvg speedWind from/ knotsBaromVisibWave heightAir tempDewpointWater temp
2020-Jul-11 07:58N 35°56' E 014°51'0 0.0
2020-Jul-11 03:22N 35°56' E 014°51'0 0.0
2020-Jul-11 02:58N 35°56' E 014°51'0 0.0
2020-Jul-11 02:28N 35°56' E 014°51'0 0.0
2020-Jul-11 01:58N 35°56' E 014°51'0 0.0
2020-Jul-11 00:58N 35°56' E 014°51'0 0.0
2020-Jul-10 22:28N 35°56' E 014°51'0 0.0
2020-Jul-10 19:28N 35°56' E 014°51'0 0.0
2020-Jul-10 18:55N 35°56' E 014°51'0 0.0
2020-Jul-10 15:58N 35°56' E 014°51'0 0.0
2020-Jul-10 14:58N 35°56' E 014°51'0 0.0
2020-Jul-10 13:28N 35°56' E 014°51'0 0.0
2020-Jul-10 11:58N 35°56' E 014°51'0 0.0
2020-Jul-10 10:58N 35°56' E 014°51'0 0.0
2020-Jul-10 08:28N 35°56' E 014°51'0 0.0
2020-Jul-10 06:28N 35°56' E 014°51'0 0.0
2020-Jul-10 05:55N 35°56' E 014°51'0 0.0
2020-Jul-10 05:28N 35°56' E 014°51'0 0.0
2020-Jul-10 02:29N 35°56' E 014°51'0 0.0
2020-Jul-10 01:58N 35°56' E 014°51'0 0.0
2020-Jul-10 01:22N 35°56' E 014°51'0 0.0
2020-Jul-10 00:58N 35°56' E 014°51'0 0.0
2020-Jul-10 00:28N 35°56' E 014°51'0 0.0
2020-Jul-09 21:58N 35°56' E 014°51'0 0.0
2020-Jul-09 15:58N 35°56' E 014°51'0 0.0
2020-Jul-09 14:58N 35°56' E 014°51'0 0.0
2020-Jul-09 12:22N 35°56' E 014°51'0 0.0
2020-Jul-09 11:55N 35°56' E 014°51'0 0.0
2020-Jul-09 11:28N 35°56' E 014°51'0 0.0
2020-Jul-09 10:28N 35°56' E 014°51'0 0.0
2020-Jul-09 08:58N 35°56' E 014°51'0 0.0
2020-Jul-09 08:10N 35°56' E 014°51'0 0.0
2020-Jul-09 05:58N 35°56' E 014°51'0 0.0
2020-Jul-09 02:58N 35°56' E 014°51'0 0.0
2020-Jul-08 21:58N 35°56' E 014°51'0 0.0
2020-Jul-08 20:28N 35°56' E 014°51'0 0.0
2020-Jul-08 17:28N 35°56' E 014°51'0 0.0
2020-Jul-08 15:28N 35°56' E 014°51'0 0.0
2020-Jul-08 13:58N 35°56' E 014°51'0 0.0
2020-Jul-08 13:28N 35°56' E 014°51'0 0.0
2020-Jul-08 12:58N 35°56' E 014°51'0 0.0
2020-Jul-08 12:28N 35°56' E 014°51'0 0.0
2020-Jul-08 05:28N 35°56' E 014°51'0 0.0
2020-Jul-08 02:58N 35°56' E 014°51'0 0.0
2020-Jul-07 22:58N 35°56' E 014°51'0 0.0
2020-Jul-07 21:58N 35°56' E 014°51'0 0.0
2020-Jul-07 20:28N 35°56' E 014°51'0 0.0
2020-Jul-07 18:28N 35°56' E 014°51'0 0.0
2020-Jul-07 15:58N 35°56' E 014°51'0 0.0
2020-Jul-07 14:58N 35°56' E 014°51'0 0.0
2020-Jul-07 13:58N 35°56' E 014°51'0 0.0
2020-Jul-07 12:55N 35°56' E 014°51'0 0.0
2020-Jul-07 11:22N 35°56' E 014°51'0 0.0
2020-Jul-07 10:58N 35°56' E 014°51'0 0.0
2020-Jul-07 07:28N 35°56' E 014°51'0 0.0
2020-Jul-07 05:28N 35°56' E 014°51'  
2020-Jul-04 12:30N 36°00' E 015°27'1 0.1
2020-Jul-04 03:00N 35°59' E 015°27'1 0.6
2020-Jul-04 02:00N 35°59' E 015°26'4 0.9
2020-Jul-03 21:26N 36°01' E 015°22'0 1.1
2020-Jul-03 21:00N 36°01' E 015°21'6 1.9
2020-Jul-03 18:00N 36°03' E 015°14'3 1.7
2020-Jul-03 16:30N 36°04' E 015°12'1 1.7
2020-Jul-03 16:00N 36°05' E 015°11'1 1.4
2020-Jul-03 15:30N 36°05' E 015°10'1 1.0
2020-Jul-03 14:30N 36°05' E 015°11'3 5.8
2020-Jul-03 14:00N 36°03' E 015°14'3 5.8
2020-Jul-03 13:30N 36°02' E 015°17'13 4.3
2020-Jul-03 10:30N 35°54' E 015°30'0 0.8
2020-Jul-03 10:00N 35°54' E 015°30'0 0.8
2020-Jul-03 09:30N 35°54' E 015°30'0 0.5
2020-Jul-03 09:00N 35°53' E 015°29'0 0.8
2020-Jul-03 08:30N 35°53' E 015°29'3 1.3
2020-Jul-03 06:30N 35°55' E 015°26'5 1.8
2020-Jul-03 04:00N 35°57' E 015°21'2 2.1
2020-Jul-03 03:00N 35°58' E 015°19'1 2.3
2020-Jul-03 02:29N 35°59' E 015°18'30 5.0
2020-Jul-02 20:30N 36°14' E 014°46'8 7.8
2020-Jul-02 19:30N 36°17' E 014°37'8 7.9
2020-Jul-02 18:30N 36°20' E 014°28'20 7.8
2020-Jul-02 16:00N 36°28' E 014°06'11 7.6
2020-Jul-02 14:30N 36°32' E 013°53'23 7.6
2020-Jul-02 11:30N 36°46' E 013°30'4 7.5
2020-Jul-02 11:00N 36°48' E 013°27'4 7.6
2020-Jul-02 10:30N 36°51' E 013°23'8 7.5
2020-Jul-02 09:30N 36°55' E 013°15'4 7.5
2020-Jul-02 09:00N 36°57' E 013°12'98 6.7
2020-Jul-01 18:19N 38°11' E 011°50'36 7.4
2020-Jul-01 13:25N 38°40' E 012°18'  
Track history (hours):
 
Tides and Currents Weather Stations Pressure Air Temp Water Temp Dewpoint Dewpoint Depression Visibility Wind Speed Wind Dir Waves Ship Positions

Sovereign

Last reported at 2020-Jul-11 07:58 UTC. Time now 2020-Jul-11 08:49 UTC.
Position N 35°56' E 014°51'.

Length 269 m; draft 7.8 m.

Type: Passenger vessel. MMSI: 249539000.

Date/timePositionNaut miles runAvg speedWind from/ knotsBaromVisibWave heightAir tempDewpointWater temp
2020-Jul-11 07:58N 35°56' E 014°51'0 0.0
2020-Jul-11 03:22N 35°56' E 014°51'0 0.0
2020-Jul-11 02:58N 35°56' E 014°51'0 0.0
2020-Jul-11 02:28N 35°56' E 014°51'0 0.0
2020-Jul-11 01:58N 35°56' E 014°51'0 0.0
2020-Jul-11 00:58N 35°56' E 014°51'0 0.0
2020-Jul-10 22:28N 35°56' E 014°51'0 0.0
2020-Jul-10 19:28N 35°56' E 014°51'0 0.0
2020-Jul-10 18:55N 35°56' E 014°51'0 0.0
2020-Jul-10 15:58N 35°56' E 014°51'0 0.0
2020-Jul-10 14:58N 35°56' E 014°51'0 0.0
2020-Jul-10 13:28N 35°56' E 014°51'0 0.0
2020-Jul-10 11:58N 35°56' E 014°51'0 0.0
2020-Jul-10 10:58N 35°56' E 014°51'0 0.0
2020-Jul-10 08:28N 35°56' E 014°51'0 0.0
2020-Jul-10 06:28N 35°56' E 014°51'0 0.0
2020-Jul-10 05:55N 35°56' E 014°51'0 0.0
2020-Jul-10 05:28N 35°56' E 014°51'0 0.0
2020-Jul-10 02:29N 35°56' E 014°51'0 0.0
2020-Jul-10 01:58N 35°56' E 014°51'0 0.0
2020-Jul-10 01:22N 35°56' E 014°51'0 0.0
2020-Jul-10 00:58N 35°56' E 014°51'0 0.0
2020-Jul-10 00:28N 35°56' E 014°51'0 0.0
2020-Jul-09 21:58N 35°56' E 014°51'0 0.0
2020-Jul-09 15:58N 35°56' E 014°51'0 0.0
2020-Jul-09 14:58N 35°56' E 014°51'0 0.0
2020-Jul-09 12:22N 35°56' E 014°51'0 0.0
2020-Jul-09 11:55N 35°56' E 014°51'0 0.0
2020-Jul-09 11:28N 35°56' E 014°51'0 0.0
2020-Jul-09 10:28N 35°56' E 014°51'0 0.0
2020-Jul-09 08:58N 35°56' E 014°51'0 0.0
2020-Jul-09 08:10N 35°56' E 014°51'0 0.0
2020-Jul-09 05:58N 35°56' E 014°51'0 0.0
2020-Jul-09 02:58N 35°56' E 014°51'0 0.0
2020-Jul-08 21:58N 35°56' E 014°51'0 0.0
2020-Jul-08 20:28N 35°56' E 014°51'0 0.0
2020-Jul-08 17:28N 35°56' E 014°51'0 0.0
2020-Jul-08 15:28N 35°56' E 014°51'0 0.0
2020-Jul-08 13:58N 35°56' E 014°51'0 0.0
2020-Jul-08 13:28N 35°56' E 014°51'0 0.0
2020-Jul-08 12:58N 35°56' E 014°51'0 0.0
2020-Jul-08 12:28N 35°56' E 014°51'0 0.0
2020-Jul-08 05:28N 35°56' E 014°51'0 0.0
2020-Jul-08 02:58N 35°56' E 014°51'0 0.0
2020-Jul-07 22:58N 35°56' E 014°51'0 0.0
2020-Jul-07 21:58N 35°56' E 014°51'0 0.0
2020-Jul-07 20:28N 35°56' E 014°51'0 0.0
2020-Jul-07 18:28N 35°56' E 014°51'0 0.0
2020-Jul-07 15:58N 35°56' E 014°51'0 0.0
2020-Jul-07 14:58N 35°56' E 014°51'0 0.0
2020-Jul-07 13:58N 35°56' E 014°51'0 0.0
2020-Jul-07 12:55N 35°56' E 014°51'0 0.0
2020-Jul-07 11:22N 35°56' E 014°51'0 0.0
2020-Jul-07 10:58N 35°56' E 014°51'0 0.0
2020-Jul-07 07:28N 35°56' E 014°51'0 0.0
2020-Jul-07 05:28N 35°56' E 014°51'  
2020-Jul-04 12:30N 36°00' E 015°27'1 0.1
2020-Jul-04 03:00N 35°59' E 015°27'1 0.6
2020-Jul-04 02:00N 35°59' E 015°26'4 0.9
2020-Jul-03 21:26N 36°01' E 015°22'0 1.1
2020-Jul-03 21:00N 36°01' E 015°21'6 1.9
2020-Jul-03 18:00N 36°03' E 015°14'3 1.7
2020-Jul-03 16:30N 36°04' E 015°12'1 1.7
2020-Jul-03 16:00N 36°05' E 015°11'1 1.4
2020-Jul-03 15:30N 36°05' E 015°10'1 1.0
2020-Jul-03 14:30N 36°05' E 015°11'3 5.8
2020-Jul-03 14:00N 36°03' E 015°14'3 5.8
2020-Jul-03 13:30N 36°02' E 015°17'13 4.3
2020-Jul-03 10:30N 35°54' E 015°30'0 0.8
2020-Jul-03 10:00N 35°54' E 015°30'0 0.8
2020-Jul-03 09:30N 35°54' E 015°30'0 0.5
2020-Jul-03 09:00N 35°53' E 015°29'0 0.8
2020-Jul-03 08:30N 35°53' E 015°29'3 1.3
2020-Jul-03 06:30N 35°55' E 015°26'5 1.8
2020-Jul-03 04:00N 35°57' E 015°21'2 2.1
2020-Jul-03 03:00N 35°58' E 015°19'1 2.3
2020-Jul-03 02:29N 35°59' E 015°18'30 5.0
2020-Jul-02 20:30N 36°14' E 014°46'8 7.8
2020-Jul-02 19:30N 36°17' E 014°37'8 7.9
2020-Jul-02 18:30N 36°20' E 014°28'20 7.8
2020-Jul-02 16:00N 36°28' E 014°06'11 7.6
2020-Jul-02 14:30N 36°32' E 013°53'23 7.6
2020-Jul-02 11:30N 36°46' E 013°30'4 7.5
2020-Jul-02 11:00N 36°48' E 013°27'4 7.6
2020-Jul-02 10:30N 36°51' E 013°23'8 7.5
2020-Jul-02 09:30N 36°55' E 013°15'4 7.5
2020-Jul-02 09:00N 36°57' E 013°12'98 6.7
2020-Jul-01 18:19N 38°11' E 011°50'36 7.4
2020-Jul-01 13:25N 38°40' E 012°18'  

Dump ship's entire track history